Time;durP1;ratioP1;P1;durP2;ratioP2;P2;SDS_P1;SDS_P2;PMS_P1;PMS_P2;Temp;Humidity;BMP_temperature;BMP_pressure;BME280_temperature;BME280_humidity;BME280_pressure;Samples;Min_cycle;Max_cycle;Signal;HPM_P1;HPM_P2
2023/01/12 00:02:57;;;;;;;19.80;16.08;;;;;;;;;;10128607;28;20076;-60
2023/01/12 00:07:51;;;;;;;17.73;15.93;;;;;;;;;;10107269;28;20037;-60
2023/01/12 00:12:44;;;;;;;17.75;15.88;;;;;;;;;;10105543;28;20047;-60
2023/01/12 00:17:39;;;;;;;25.02;15.77;;;;;;;;;;10104826;28;20057;-60
2023/01/12 00:22:33;;;;;;;16.65;14.75;;;;;;;;;;10105030;28;20098;-60
2023/01/12 00:27:27;;;;;;;18.33;16.27;;;;;;;;;;10116296;28;20048;-60
2023/01/12 00:32:21;;;;;;;19.10;15.77;;;;;;;;;;10109326;28;20075;-60
2023/01/12 00:37:14;;;;;;;21.17;14.75;;;;;;;;;;10109631;28;20060;-60
2023/01/12 00:47:20;;;;;;;18.85;15.43;;;;;;;;;;10094537;28;20061;-60
2023/01/12 00:52:16;;;;;;;17.58;15.20;;;;;;;;;;10110087;28;20049;-60
2023/01/12 00:57:22;;;;;;;16.80;14.98;;;;;;;;;;10106364;28;20443;-60
2023/01/12 01:02:16;;;;;;;17.63;14.68;;;;;;;;;;10111077;28;20408;-60
2023/01/12 01:07:09;;;;;;;15.82;14.05;;;;;;;;;;10112598;28;20045;-60
2023/01/12 01:12:02;;;;;;;18.10;15.02;;;;;;;;;;10104640;28;20143;-60
2023/01/12 01:16:55;;;;;;;19.90;15.32;;;;;;;;;;10108712;28;20489;-60
2023/01/12 01:21:49;;;;;;;17.92;16.13;;;;;;;;;;10119926;28;20045;-60
2023/01/12 01:26:43;;;;;;;17.40;14.82;;;;;;;;;;10105027;28;20057;-60
2023/01/12 01:31:36;;;;;;;18.45;16.58;;;;;;;;;;10105696;28;20055;-60
2023/01/12 01:36:30;;;;;;;21.40;19.33;;;;;;;;;;10109792;28;20048;-60
2023/01/12 01:41:29;;;;;;;17.73;15.60;;;;;;;;;;10109779;28;20068;-60
2023/01/12 01:46:28;;;;;;;18.83;16.83;;;;;;;;;;10124023;28;20057;-61
2023/01/12 01:52:01;;;;;;;19.00;15.07;;;;;;;;;;10124348;28;20063;-60
2023/01/12 01:57:13;;;;;;;16.80;15.00;;;;;;;;;;10111869;28;20057;-60
2023/01/12 02:02:07;;;;;;;18.42;16.52;;;;;;;;;;10103720;28;20135;-60
2023/01/12 02:07:01;;;;;;;24.60;16.05;;;;;;;;;;10105349;28;20120;-61
2023/01/12 02:17:39;;;;;;;17.70;15.80;;;;;;;;;;10115262;28;20036;-60
2023/01/12 02:22:44;;;;;;;20.88;16.25;;;;;;;;;;10111193;28;20619;-60
2023/01/12 02:27:46;;;;;;;17.27;15.50;;;;;;;;;;10108522;28;20050;-60
2023/01/12 02:33:26;;;;;;;18.75;15.43;;;;;;;;;;10111268;28;20052;-60
2023/01/12 02:38:46;;;;;;;17.17;14.88;;;;;;;;;;10072727;28;20049;-60
2023/01/12 02:43:40;;;;;;;16.60;14.93;;;;;;;;;;10109828;28;20098;-60
2023/01/12 02:48:42;;;;;;;19.95;17.83;;;;;;;;;;10131249;28;20056;-60
2023/01/12 02:54:06;;;;;;;16.98;15.18;;;;;;;;;;10118273;28;20413;-60
2023/01/12 02:59:09;;;;;;;18.20;14.90;;;;;;;;;;10118070;28;20049;-60
2023/01/12 03:04:05;;;;;;;18.70;16.50;;;;;;;;;;10124594;28;20445;-61
2023/01/12 03:09:00;;;;;;;19.98;17.88;;;;;;;;;;10110040;28;20091;-60
2023/01/12 03:13:56;;;;;;;19.90;18.00;;;;;;;;;;10108655;28;20462;-60
2023/01/12 03:18:59;;;;;;;20.50;18.42;;;;;;;;;;10121620;28;20422;-60
2023/01/12 03:24:07;;;;;;;20.83;17.67;;;;;;;;;;10111560;28;20064;-60
2023/01/12 03:29:33;;;;;;;18.88;17.05;;;;;;;;;;10109538;28;20088;-60
2023/01/12 03:34:26;;;;;;;19.45;17.13;;;;;;;;;;10129661;28;20052;-60
2023/01/12 03:39:43;;;;;;;18.17;16.48;;;;;;;;;;10132074;28;20049;-60
2023/01/12 03:44:46;;;;;;;19.20;17.27;;;;;;;;;;10140071;28;20412;-60
2023/01/12 03:50:00;;;;;;;21.33;18.52;;;;;;;;;;10104109;28;20055;-60
2023/01/12 03:54:56;;;;;;;19.05;17.13;;;;;;;;;;10115783;28;20064;-60
2023/01/12 03:59:50;;;;;;;19.20;17.23;;;;;;;;;;10110198;28;20084;-60
2023/01/12 04:04:43;;;;;;;19.70;17.60;;;;;;;;;;10104653;28;20053;-60
2023/01/12 04:09:37;;;;;;;20.33;18.13;;;;;;;;;;10106194;28;20048;-60
2023/01/12 04:14:32;;;;;;;18.50;15.93;;;;;;;;;;10109378;28;20079;-60
2023/01/12 04:19:28;;;;;;;20.27;16.67;;;;;;;;;;10106207;28;20049;-60
2023/01/12 04:24:22;;;;;;;18.50;16.58;;;;;;;;;;10115609;28;20548;-60
2023/01/12 04:29:15;;;;;;;17.75;16.05;;;;;;;;;;10113724;28;20505;-60
2023/01/12 04:34:10;;;;;;;16.92;15.18;;;;;;;;;;10102389;28;20060;-60
2023/01/12 04:39:04;;;;;;;19.42;14.55;;;;;;;;;;10104040;28;20405;-60
2023/01/12 04:43:58;;;;;;;15.73;14.05;;;;;;;;;;10108015;28;20452;-60
2023/01/12 04:48:52;;;;;;;14.63;12.95;;;;;;;;;;10121253;28;20052;-60
2023/01/12 04:53:47;;;;;;;14.40;11.93;;;;;;;;;;10108324;28;20067;-60
2023/01/12 04:58:41;;;;;;;16.65;11.90;;;;;;;;;;10108518;28;20045;-60
2023/01/12 05:03:35;;;;;;;12.70;11.15;;;;;;;;;;10117888;28;20077;-60
2023/01/12 05:13:48;;;;;;;13.35;11.98;;;;;;;;;;10094176;28;20044;-60
2023/01/12 05:18:46;;;;;;;15.43;12.60;;;;;;;;;;10104683;28;20057;-60
2023/01/12 05:23:40;;;;;;;15.80;14.15;;;;;;;;;;10110550;28;20057;-60
2023/01/12 05:28:34;;;;;;;13.85;12.45;;;;;;;;;;10105360;28;20110;-60
2023/01/12 05:33:27;;;;;;;14.05;12.65;;;;;;;;;;10108771;28;20080;-62
2023/01/12 05:38:21;;;;;;;15.55;12.68;;;;;;;;;;10105613;28;20135;-60
2023/01/12 05:48:27;;;;;;;14.63;13.23;;;;;;;;;;10114755;28;20044;-61
2023/01/12 05:53:20;;;;;;;18.08;13.38;;;;;;;;;;10120500;28;20088;-61
2023/01/12 05:58:13;;;;;;;16.13;13.93;;;;;;;;;;10122783;28;20099;-61
2023/01/12 06:03:07;;;;;;;15.25;12.57;;;;;;;;;;10123723;28;20122;-61
2023/01/12 06:08:01;;;;;;;13.98;12.52;;;;;;;;;;10123223;28;20040;-62
2023/01/12 06:18:07;;;;;;;15.45;13.82;;;;;;;;;;10120102;28;20041;-61
2023/01/12 06:23:04;;;;;;;20.92;13.52;;;;;;;;;;10125479;28;20071;-61
2023/01/12 06:27:57;;;;;;;14.80;13.27;;;;;;;;;;10118533;28;20043;-61
2023/01/12 06:32:50;;;;;;;17.02;13.43;;;;;;;;;;10117322;28;20040;-61
2023/01/12 06:37:44;;;;;;;16.45;13.07;;;;;;;;;;10122967;28;20053;-61
2023/01/12 06:42:42;;;;;;;15.05;13.48;;;;;;;;;;10122013;28;20553;-62
2023/01/12 06:47:44;;;;;;;14.95;13.45;;;;;;;;;;10122880;28;20072;-61
2023/01/12 06:52:38;;;;;;;13.63;11.95;;;;;;;;;;10126795;28;20094;-61
2023/01/12 06:57:31;;;;;;;13.35;12.05;;;;;;;;;;10123914;28;20104;-61
2023/01/12 07:02:25;;;;;;;13.75;12.32;;;;;;;;;;10141013;28;20139;-61
2023/01/12 07:07:19;;;;;;;12.15;10.98;;;;;;;;;;10121302;28;20450;-61
2023/01/12 07:12:13;;;;;;;16.05;13.77;;;;;;;;;;10128698;28;20114;-61
2023/01/12 07:17:07;;;;;;;12.10;10.95;;;;;;;;;;10123120;28;20093;-61
2023/01/12 07:22:00;;;;;;;13.25;11.00;;;;;;;;;;10128353;28;20048;-61
2023/01/12 07:26:56;;;;;;;13.35;11.95;;;;;;;;;;10123821;28;20059;-60
2023/01/12 07:31:50;;;;;;;11.35;10.35;;;;;;;;;;10120652;28;20410;-60
2023/01/12 07:36:43;;;;;;;24.13;20.00;;;;;;;;;;10121667;28;20044;-60
2023/01/12 07:46:49;;;;;;;24.40;12.43;;;;;;;;;;10119143;28;20493;-60
2023/01/12 07:51:43;;;;;;;15.43;12.93;;;;;;;;;;10120557;28;20055;-59
2023/01/12 07:56:36;;;;;;;12.38;10.85;;;;;;;;;;10114253;28;20087;-60
2023/01/12 08:01:31;;;;;;;12.45;11.07;;;;;;;;;;10121824;28;20052;-59
2023/01/12 08:06:25;;;;;;;15.93;11.18;;;;;;;;;;10120312;28;20493;-60
2023/01/12 08:11:18;;;;;;;13.98;10.65;;;;;;;;;;10118198;28;20072;-60
2023/01/12 08:16:16;;;;;;;14.40;9.60;;;;;;;;;;10120868;28;20545;-60
2023/01/12 08:21:12;;;;;;;13.80;11.13;;;;;;;;;;10138047;28;20555;-60
2023/01/12 08:26:11;;;;;;;15.18;11.60;;;;;;;;;;10117463;28;20468;-60
2023/01/12 08:31:08;;;;;;;13.30;10.60;;;;;;;;;;10120737;28;20559;-60
2023/01/12 08:36:04;;;;;;;11.07;9.63;;;;;;;;;;10141710;28;20786;-59
2023/01/12 08:46:09;;;;;;;15.50;12.20;;;;;;;;;;10124814;28;20485;-60
2023/01/12 08:51:05;;;;;;;27.27;20.42;;;;;;;;;;10119712;28;20041;-59
2023/01/12 08:55:59;;;;;;;23.65;21.20;;;;;;;;;;10118479;28;20379;-59
2023/01/12 09:00:51;;;;;;;13.20;9.45;;;;;;;;;;10117438;28;20033;-59
2023/01/12 09:05:46;;;;;;;28.23;9.70;;;;;;;;;;10118729;28;20064;-60
2023/01/12 09:10:40;;;;;;;9.60;6.05;;;;;;;;;;10119566;28;20053;-60
2023/01/12 09:15:33;;;;;;;13.50;6.55;;;;;;;;;;10124166;28;20471;-60
2023/01/12 09:20:27;;;;;;;8.40;7.53;;;;;;;;;;10129138;28;20163;-60
2023/01/12 09:25:21;;;;;;;10.77;7.13;;;;;;;;;;10117541;28;20056;-60
2023/01/12 09:30:16;;;;;;;9.13;6.97;;;;;;;;;;10115092;28;20051;-61
2023/01/12 09:35:09;;;;;;;9.60;7.47;;;;;;;;;;10113012;28;20059;-60
2023/01/12 09:40:03;;;;;;;8.90;8.02;;;;;;;;;;10116226;28;20048;-59
2023/01/12 09:50:17;;;;;;;9.38;7.30;;;;;;;;;;10113539;28;20497;-60
2023/01/12 09:55:16;;;;;;;8.80;6.30;;;;;;;;;;10120034;28;20056;-60
2023/01/12 10:00:10;;;;;;;8.20;5.97;;;;;;;;;;10139931;28;20064;-61
2023/01/12 10:05:06;;;;;;;8.13;4.15;;;;;;;;;;10128629;28;20049;-61
2023/01/12 10:10:01;;;;;;;5.35;4.45;;;;;;;;;;10122352;28;20052;-59
2023/01/12 10:15:05;;;;;;;6.95;4.32;;;;;;;;;;10124617;28;20047;-59
2023/01/12 10:20:19;;;;;;;5.60;4.53;;;;;;;;;;10116953;28;20398;-59
2023/01/12 10:25:35;;;;;;;5.47;4.80;;;;;;;;;;10119531;28;20045;-59
2023/01/12 10:30:32;;;;;;;6.15;4.60;;;;;;;;;;10116484;28;20110;-59
2023/01/12 10:35:25;;;;;;;7.38;4.43;;;;;;;;;;10119619;28;20429;-59
2023/01/12 10:40:28;;;;;;;7.97;4.45;;;;;;;;;;10126402;28;20457;-59
2023/01/12 10:45:23;;;;;;;7.55;4.97;;;;;;;;;;10128312;28;20402;-59
2023/01/12 10:50:19;;;;;;;8.05;7.25;;;;;;;;;;10131381;28;20106;-60
2023/01/12 10:55:22;;;;;;;8.98;6.22;;;;;;;;;;10124346;28;20506;-60
2023/01/12 11:00:22;;;;;;;12.90;7.15;;;;;;;;;;10128877;28;20466;-64
2023/01/12 11:05:29;;;;;;;10.48;6.10;;;;;;;;;;10124646;28;20040;-60
2023/01/12 11:10:34;;;;;;;10.05;7.80;;;;;;;;;;10119283;28;20076;-60
2023/01/12 11:15:29;;;;;;;9.55;7.85;;;;;;;;;;10125764;28;20417;-61
2023/01/12 11:20:55;;;;;;;10.45;7.50;;;;;;;;;;10129455;28;20073;-61
2023/01/12 11:25:51;;;;;;;11.88;7.95;;;;;;;;;;10125503;28;20483;-61
2023/01/12 11:31:00;;;;;;;13.75;7.18;;;;;;;;;;10123446;28;20434;-61
2023/01/12 11:36:08;;;;;;;10.02;8.02;;;;;;;;;;10120855;28;20531;-60
2023/01/12 11:41:09;;;;;;;8.38;7.13;;;;;;;;;;10118897;28;20056;-61
2023/01/12 11:46:11;;;;;;;14.05;7.97;;;;;;;;;;10122050;28;20049;-61
2023/01/12 11:51:14;;;;;;;9.13;6.93;;;;;;;;;;10120939;28;20053;-60
2023/01/12 11:56:20;;;;;;;8.65;7.55;;;;;;;;;;10122412;28;20160;-60
2023/01/12 12:01:25;;;;;;;9.02;7.20;;;;;;;;;;10122810;28;20640;-60
2023/01/12 12:06:29;;;;;;;9.57;8.27;;;;;;;;;;10124459;28;20068;-62
2023/01/12 12:11:57;;;;;;;10.18;7.28;;;;;;;;;;10119536;28;20077;-61
2023/01/12 12:17:14;;;;;;;15.27;8.45;;;;;;;;;;10068212;28;20040;-60
2023/01/12 12:22:30;;;;;;;11.60;7.82;;;;;;;;;;10107537;28;20049;-61
2023/01/12 12:27:23;;;;;;;10.60;9.50;;;;;;;;;;10140764;28;20048;-60
2023/01/12 12:32:29;;;;;;;11.88;8.77;;;;;;;;;;10119354;28;20044;-60
2023/01/12 12:37:22;;;;;;;13.13;9.18;;;;;;;;;;10121459;28;20060;-61
2023/01/12 12:48:01;;;;;;;12.23;10.80;;;;;;;;;;10122097;28;20055;-60
2023/01/12 12:53:12;;;;;;;21.40;11.20;;;;;;;;;;10122424;28;20068;-60
2023/01/12 12:58:26;;;;;;;14.98;10.85;;;;;;;;;;10120519;28;20076;-60
2023/01/12 13:03:38;;;;;;;19.63;10.85;;;;;;;;;;10132105;28;20556;-60
2023/01/12 13:08:34;;;;;;;15.48;10.35;;;;;;;;;;10132917;28;20056;-60
2023/01/12 13:13:37;;;;;;;19.08;13.77;;;;;;;;;;10104607;28;20049;-61
2023/01/12 13:18:50;;;;;;;15.32;12.23;;;;;;;;;;10123185;28;20041;-60
2023/01/12 13:23:47;;;;;;;14.63;13.07;;;;;;;;;;10130054;28;20040;-60
2023/01/12 13:28:40;;;;;;;13.80;11.70;;;;;;;;;;10130320;28;20037;-60
2023/01/12 13:33:36;;;;;;;20.08;14.90;;;;;;;;;;10130028;28;20083;-60
2023/01/12 13:38:32;;;;;;;16.58;13.68;;;;;;;;;;10129385;28;20059;-61
2023/01/12 13:43:32;;;;;;;21.08;17.35;;;;;;;;;;10130190;28;20052;-60
2023/01/12 13:48:27;;;;;;;15.52;13.93;;;;;;;;;;10105233;28;20060;-60
2023/01/12 13:53:24;;;;;;;20.00;13.95;;;;;;;;;;10119642;28;20506;-60
2023/01/12 13:58:20;;;;;;;16.83;13.00;;;;;;;;;;10107059;28;20425;-60
2023/01/12 14:03:25;;;;;;;17.85;15.70;;;;;;;;;;10104920;28;20581;-61
2023/01/12 14:08:32;;;;;;;18.20;14.88;;;;;;;;;;10114668;28;20076;-61
2023/01/12 14:13:53;;;;;;;18.80;15.52;;;;;;;;;;10119379;28;20070;-61
2023/01/12 14:18:49;;;;;;;20.58;14.63;;;;;;;;;;10112287;28;20055;-60
2023/01/12 14:23:43;;;;;;;43.78;26.35;;;;;;;;;;10111881;28;20068;-60
2023/01/12 14:28:37;;;;;;;24.08;18.35;;;;;;;;;;10113927;28;20051;-60
2023/01/12 14:33:32;;;;;;;19.92;16.23;;;;;;;;;;10109621;28;20077;-63
2023/01/12 14:38:26;;;;;;;18.48;15.60;;;;;;;;;;10111422;28;20456;-61
2023/01/12 14:48:33;;;;;;;18.75;16.83;;;;;;;;;;10119320;28;20045;-60
2023/01/12 14:53:38;;;;;;;16.85;14.85;;;;;;;;;;10110240;28;20410;-60
2023/01/12 14:58:32;;;;;;;19.20;15.43;;;;;;;;;;10110154;28;20045;-60
2023/01/12 15:03:26;;;;;;;26.52;16.35;;;;;;;;;;10110591;28;20063;-62
2023/01/12 15:08:35;;;;;;;25.60;17.35;;;;;;;;;;10118100;28;20045;-62
2023/01/12 15:13:32;;;;;;;27.73;18.00;;;;;;;;;;10117049;28;20044;-62
2023/01/12 15:28:51;;;;;;;26.88;17.95;;;;;;;;;;10117051;28;20506;-62
2023/01/12 15:33:45;;;;;;;20.77;17.90;;;;;;;;;;10109032;28;20055;-62
2023/01/12 15:38:38;;;;;;;21.58;18.42;;;;;;;;;;10115851;28;20103;-62
2023/01/12 15:43:32;;;;;;;22.65;19.83;;;;;;;;;;10110755;28;20056;-62
2023/01/12 15:48:26;;;;;;;23.83;17.35;;;;;;;;;;10109384;28;20052;-62
2023/01/12 15:53:21;;;;;;;31.90;21.40;;;;;;;;;;10114671;28;20098;-62
2023/01/12 15:58:15;;;;;;;28.52;23.67;;;;;;;;;;10116166;28;20418;-62
2023/01/12 16:03:13;;;;;;;28.13;21.95;;;;;;;;;;10109558;28;20056;-61
2023/01/12 16:08:26;;;;;;;34.08;22.15;;;;;;;;;;10098304;28;20037;-62
2023/01/12 16:13:20;;;;;;;30.33;22.45;;;;;;;;;;10109128;28;20066;-62
2023/01/12 16:18:14;;;;;;;29.92;24.85;;;;;;;;;;10125730;28;20072;-62
2023/01/12 16:23:07;;;;;;;37.67;24.10;;;;;;;;;;10117755;28;20087;-62
2023/01/12 16:28:01;;;;;;;104.45;74.90;;;;;;;;;;10121994;28;20083;-61
2023/01/12 16:32:56;;;;;;;36.58;22.98;;;;;;;;;;10106022;28;20072;-62
2023/01/12 16:37:54;;;;;;;28.85;19.98;;;;;;;;;;10107180;28;20426;-62
2023/01/12 16:42:48;;;;;;;36.58;20.48;;;;;;;;;;10110092;28;20072;-62
2023/01/12 16:47:42;;;;;;;25.58;18.85;;;;;;;;;;10106065;28;20079;-61
2023/01/12 16:52:36;;;;;;;32.10;23.58;;;;;;;;;;10112901;28;20383;-61
2023/01/12 16:57:29;;;;;;;29.70;23.70;;;;;;;;;;10097771;28;20075;-61
2023/01/12 17:02:23;;;;;;;36.45;21.52;;;;;;;;;;10098675;28;20056;-61
2023/01/12 17:07:17;;;;;;;35.58;20.75;;;;;;;;;;10104999;28;20421;-61
2023/01/12 17:12:10;;;;;;;31.45;21.67;;;;;;;;;;10112356;28;20048;-61
2023/01/12 17:17:07;;;;;;;37.03;23.52;;;;;;;;;;10115731;28;20110;-61
2023/01/12 17:22:01;;;;;;;35.10;26.45;;;;;;;;;;10105004;28;20072;-61
2023/01/12 17:26:55;;;;;;;36.80;24.83;;;;;;;;;;10100328;28;20152;-61
2023/01/12 17:32:02;;;;;;;32.38;24.80;;;;;;;;;;10124276;28;20127;-61
2023/01/12 17:37:06;;;;;;;44.93;31.00;;;;;;;;;;10110887;28;20070;-61
2023/01/12 17:47:12;;;;;;;54.22;36.20;;;;;;;;;;10121325;28;20051;-61
2023/01/12 17:52:05;;;;;;;53.95;35.95;;;;;;;;;;10122865;28;20052;-61
2023/01/12 17:56:59;;;;;;;88.40;58.25;;;;;;;;;;10117817;28;20076;-61
2023/01/12 18:01:56;;;;;;;62.10;39.58;;;;;;;;;;10113347;28;20041;-61
2023/01/12 18:06:49;;;;;;;51.35;33.17;;;;;;;;;;10134253;28;20045;-61
2023/01/12 18:11:42;;;;;;;41.08;26.42;;;;;;;;;;10127149;28;20079;-61
2023/01/12 18:16:36;;;;;;;29.40;23.05;;;;;;;;;;10114959;28;20424;-61
2023/01/12 18:21:29;;;;;;;32.00;22.65;;;;;;;;;;10123159;28;20041;-61
2023/01/12 18:26:43;;;;;;;28.63;23.42;;;;;;;;;;10109468;28;20053;-62
2023/01/12 18:31:39;;;;;;;33.13;24.60;;;;;;;;;;10105858;28;20065;-61
2023/01/12 18:36:39;;;;;;;25.30;22.27;;;;;;;;;;10106547;28;20049;-61
2023/01/12 18:57:07;;;;;;;28.10;22.92;;;;;;;;;;10111089;28;20053;-61
2023/01/12 19:02:00;;;;;;;30.88;23.63;;;;;;;;;;10119472;28;20402;-61
2023/01/12 19:06:59;;;;;;;30.45;22.05;;;;;;;;;;10119456;28;20052;-61
2023/01/12 19:11:52;;;;;;;27.73;21.97;;;;;;;;;;10115031;28;20497;-60
2023/01/12 19:32:24;;;;;;;45.05;33.15;;;;;;;;;;10117343;28;20048;-61
2023/01/12 19:37:17;;;;;;;41.17;34.03;;;;;;;;;;10109262;28;20079;-61
2023/01/12 19:47:23;;;;;;;40.95;34.60;;;;;;;;;;10112928;28;20041;-61
2023/01/12 19:52:17;;;;;;;36.45;31.20;;;;;;;;;;10119361;28;20057;-62
2023/01/12 19:57:11;;;;;;;38.70;33.03;;;;;;;;;;10109106;28;20079;-62
2023/01/12 20:02:05;;;;;;;61.25;45.53;;;;;;;;;;10120485;28;20106;-62
2023/01/12 20:06:59;;;;;;;51.90;44.53;;;;;;;;;;10111872;28;20139;-61
2023/01/12 20:11:54;;;;;;;51.55;45.10;;;;;;;;;;10126701;28;20463;-60
2023/01/12 20:16:47;;;;;;;70.05;50.00;;;;;;;;;;10138545;28;20068;-62
2023/01/12 20:21:41;;;;;;;60.25;44.42;;;;;;;;;;10111987;28;20502;-62
2023/01/12 20:26:35;;;;;;;61.33;40.80;;;;;;;;;;10107404;28;20413;-60
2023/01/12 20:31:28;;;;;;;58.88;49.83;;;;;;;;;;10101617;28;20053;-63
2023/01/12 20:36:22;;;;;;;61.15;45.47;;;;;;;;;;10110563;28;20048;-63
2023/01/12 20:41:16;;;;;;;36.53;31.23;;;;;;;;;;10107165;28;20049;-63
2023/01/12 20:46:12;;;;;;;46.22;36.35;;;;;;;;;;10102230;28;20489;-62
2023/01/12 20:51:26;;;;;;;56.35;48.65;;;;;;;;;;10100832;28;20124;-63
2023/01/12 20:56:19;;;;;;;33.75;23.08;;;;;;;;;;10102381;28;20068;-63
2023/01/12 21:01:14;;;;;;;27.02;24.02;;;;;;;;;;10103481;28;20496;-64
2023/01/12 21:06:13;;;;;;;37.28;26.15;;;;;;;;;;10107430;28;20053;-63
2023/01/12 21:11:07;;;;;;;32.22;26.23;;;;;;;;;;10112361;28;20084;-63
2023/01/12 21:16:02;;;;;;;51.50;34.70;;;;;;;;;;10116606;28;20489;-78
2023/01/12 21:20:56;;;;;;;33.28;29.65;;;;;;;;;;10105530;28;20548;-79
2023/01/12 21:25:50;;;;;;;33.63;28.50;;;;;;;;;;10108801;28;20128;-79
2023/01/12 21:30:45;;;;;;;44.97;31.55;;;;;;;;;;10096374;28;20486;-73
2023/01/12 21:35:39;;;;;;;50.83;37.92;;;;;;;;;;10101767;28;20147;-73
2023/01/12 21:40:32;;;;;;;37.92;31.10;;;;;;;;;;10101658;28;20047;-73
2023/01/12 21:45:27;;;;;;;43.80;32.70;;;;;;;;;;10105305;28;20060;-73
2023/01/12 21:50:21;;;;;;;33.30;25.50;;;;;;;;;;10105046;28;20053;-73
2023/01/12 21:55:15;;;;;;;25.35;21.52;;;;;;;;;;10104694;28;20053;-73
2023/01/12 22:00:11;;;;;;;25.73;21.55;;;;;;;;;;10106841;28;20094;-72
2023/01/12 22:05:05;;;;;;;23.65;18.48;;;;;;;;;;10102898;28;20064;-73
2023/01/12 22:10:17;;;;;;;23.63;20.83;;;;;;;;;;10101247;28;20450;-74
2023/01/12 22:15:11;;;;;;;25.35;17.30;;;;;;;;;;10103148;28;20057;-76
2023/01/12 22:20:08;;;;;;;23.52;21.00;;;;;;;;;;10103092;28;20049;-75
2023/01/12 22:25:02;;;;;;;26.83;21.50;;;;;;;;;;10099775;28;20123;-74
2023/01/12 22:29:56;;;;;;;31.98;24.38;;;;;;;;;;10100199;28;20041;-77
2023/01/12 22:34:50;;;;;;;36.70;25.30;;;;;;;;;;10112254;28;20132;-76
2023/01/12 22:39:45;;;;;;;25.85;23.05;;;;;;;;;;10113692;28;20499;-78
2023/01/12 22:44:39;;;;;;;27.58;21.88;;;;;;;;;;10102530;28;20602;-83
2023/01/12 22:49:34;;;;;;;28.50;22.02;;;;;;;;;;10110647;28;20490;-79
2023/01/12 22:54:28;;;;;;;29.80;20.73;;;;;;;;;;10113044;28;20135;-80
2023/01/12 22:59:21;;;;;;;25.08;22.33;;;;;;;;;;10116634;28;20123;-80
2023/01/12 23:04:15;;;;;;;26.38;21.88;;;;;;;;;;10108797;28;20064;-79
2023/01/12 23:09:10;;;;;;;28.10;22.02;;;;;;;;;;10107794;28;20048;-80
2023/01/12 23:14:04;;;;;;;26.70;22.13;;;;;;;;;;10108100;28;20566;-81
2023/01/12 23:18:59;;;;;;;28.70;22.13;;;;;;;;;;10104886;28;20490;-80
2023/01/12 23:23:57;;;;;;;28.63;21.92;;;;;;;;;;10108229;28;20110;-82
2023/01/12 23:29:11;;;;;;;27.30;22.63;;;;;;;;;;10115108;28;20051;-81
2023/01/12 23:34:05;;;;;;;26.75;21.92;;;;;;;;;;10107171;28;20048;-80
2023/01/12 23:39:00;;;;;;;32.17;22.77;;;;;;;;;;10116246;28;20056;-80
2023/01/12 23:43:56;;;;;;;31.02;21.80;;;;;;;;;;10117657;28;20509;-82
2023/01/12 23:48:53;;;;;;;27.33;22.35;;;;;;;;;;10120427;28;20090;-82
2023/01/12 23:53:47;;;;;;;26.95;21.77;;;;;;;;;;10123129;28;20501;-74
2023/01/12 23:58:42;;;;;;;29.02;22.83;;;;;;;;;;10123015;28;20073;-75
